Time,TemperatureF,DewpointF,PressureIn,WindDirection,WindDirectionDegrees,WindSpeedMPH,WindSpeedGustMPH,Humidity,HourlyPrecipIn,Conditions,Clouds,dailyrainin,SoftwareType,DateUTC
2013-02-09 00:19:00,23.5,22.3,29.50,North,10,0.0,0.0,95,0.00,,,0.00,Wunderground v.1.15,2013-02-09 05:19:00,
2013-02-09 00:39:00,23.0,21.5,29.52,North,10,0.0,0.0,94,0.00,,,0.00,Wunderground v.1.15,2013-02-09 05:39:00,
2013-02-09 00:49:00,22.7,21.2,29.52,North,10,0.0,0.0,94,0.00,,,0.00,Wunderground v.1.15,2013-02-09 05:49:00,
2013-02-09 00:59:00,22.7,21.2,29.52,North,5,0.0,0.0,94,0.00,,,0.00,Wunderground v.1.15,2013-02-09 05:59:00,
2013-02-09 01:09:00,22.6,21.1,29.53,North,9,0.0,0.0,94,0.00,,,0.00,Wunderground v.1.15,2013-02-09 06:09:00,
2013-02-09 01:19:00,22.4,20.9,29.54,North,360,0.0,0.0,94,0.00,,,0.00,Wunderground v.1.15,2013-02-09 06:19:00,
2013-02-09 01:29:00,22.3,20.8,29.54,North,360,0.0,0.0,94,0.00,,,0.00,Wunderground v.1.15,2013-02-09 06:29:00,
2013-02-09 01:39:00,22.4,20.9,29.55,North,9,0.0,0.0,94,0.00,,,0.00,Wunderground v.1.15,2013-02-09 06:39:00,
2013-02-09 01:49:00,22.7,21.2,29.55,North,9,0.0,0.0,94,0.00,,,0.00,Wunderground v.1.15,2013-02-09 06:49:00,
2013-02-09 01:59:00,22.8,21.3,29.55,North,10,0.0,0.0,94,0.00,,,0.00,Wunderground v.1.15,2013-02-09 06:59:00,
2013-02-09 02:09:00,22.9,21.4,29.55,North,9,0.0,0.0,94,0.00,,,0.00,Wunderground v.1.15,2013-02-09 07:09:00,
2013-02-09 02:18:00,23.3,21.8,29.56,North,10,0.0,0.0,94,0.00,,,0.00,Wunderground v.1.15,2013-02-09 07:18:00,
2013-02-09 02:28:00,23.1,21.6,29.56,North,9,0.0,0.0,94,0.00,,,0.00,Wunderground v.1.15,2013-02-09 07:28:00,
2013-02-09 02:38:00,23.4,21.9,29.57,North,10,0.0,0.0,94,0.00,,,0.00,Wunderground v.1.15,2013-02-09 07:38:00,
2013-02-09 02:48:00,23.5,22.3,29.57,North,10,0.0,0.0,95,0.00,,,0.00,Wunderground v.1.15,2013-02-09 07:48:00,
2013-02-09 02:58:00,23.6,22.4,29.57,North,10,0.0,0.0,95,0.00,,,0.00,Wunderground v.1.15,2013-02-09 07:58:00,
2013-02-09 03:10:00,23.7,22.2,29.57,North,10,0.0,0.0,94,0.00,,,0.00,Wunderground v.1.15,2013-02-09 08:10:00,
2013-02-09 03:19:00,23.9,22.4,29.57,North,10,0.0,0.0,94,0.00,,,0.00,Wunderground v.1.15,2013-02-09 08:19:00,
2013-02-09 03:29:00,23.9,22.4,29.57,North,9,0.0,0.0,94,0.00,,,0.00,Wunderground v.1.15,2013-02-09 08:29:00,
2013-02-09 03:39:00,24.1,22.9,29.58,North,10,0.0,0.0,95,0.00,,,0.00,Wunderground v.1.15,2013-02-09 08:39:00,
2013-02-09 03:49:00,24.5,23.3,29.59,North,9,0.0,0.0,95,0.00,,,0.00,Wunderground v.1.15,2013-02-09 08:49:00,
2013-02-09 03:59:00,24.9,23.7,29.59,North,9,0.0,0.0,95,0.00,,,0.00,Wunderground v.1.15,2013-02-09 08:59:00,
2013-02-09 04:09:00,25.0,23.8,29.59,North,9,0.0,0.0,95,0.00,,,0.00,Wunderground v.1.15,2013-02-09 09:09:00,
2013-02-09 04:19:00,24.9,23.7,29.59,North,5,0.0,0.0,95,0.00,,,0.00,Wunderground v.1.15,2013-02-09 09:19:00,
2013-02-09 04:29:00,24.8,23.6,29.59,North,9,0.0,0.0,95,0.00,,,0.00,Wunderground v.1.15,2013-02-09 09:29:00,
2013-02-09 04:39:00,25.2,24.0,29.59,North,10,0.0,0.0,95,0.00,,,0.00,Wunderground v.1.15,2013-02-09 09:39:00,
2013-02-09 04:49:00,25.3,24.1,29.60,North,9,0.0,0.0,95,0.00,,,0.00,Wunderground v.1.15,2013-02-09 09:49:00,
2013-02-09 04:59:00,25.5,24.3,29.60,North,10,0.0,0.0,95,0.00,,,0.00,Wunderground v.1.15,2013-02-09 09:59:00,
2013-02-09 05:09:00,25.5,24.3,29.60,North,10,0.0,0.0,95,0.00,,,0.00,Wunderground v.1.15,2013-02-09 10:09:00,
2013-02-09 05:19:00,25.8,24.6,29.60,North,9,0.0,0.0,95,0.00,,,0.00,Wunderground v.1.15,2013-02-09 10:19:00,
2013-02-09 05:29:00,25.8,24.6,29.60,North,9,0.0,0.0,95,0.00,,,0.00,Wunderground v.1.15,2013-02-09 10:29:00,
2013-02-09 05:39:00,26.1,24.9,29.61,North,9,0.0,0.0,95,0.00,,,0.00,Wunderground v.1.15,2013-02-09 10:39:00,
2013-02-09 05:49:00,26.2,25.0,29.61,North,5,0.0,0.0,95,0.00,,,0.00,Wunderground v.1.15,2013-02-09 10:49:00,
2013-02-09 05:59:00,26.3,25.1,29.61,North,9,0.0,0.0,95,0.00,,,0.00,Wunderground v.1.15,2013-02-09 10:59:00,
2013-02-09 06:09:00,26.2,25.0,29.61,North,9,0.0,0.0,95,0.00,,,0.00,Wunderground v.1.15,2013-02-09 11:09:00,
2013-02-09 06:19:00,25.9,24.7,29.62,North,9,0.0,0.0,95,0.00,,,0.00,Wunderground v.1.15,2013-02-09 11:19:00,
2013-02-09 06:28:00,25.7,24.5,29.62,North,9,0.0,0.0,95,0.00,,,0.00,Wunderground v.1.15,2013-02-09 11:28:00,
2013-02-09 06:39:00,25.6,24.4,29.63,North,5,0.0,0.0,95,0.00,,,0.00,Wunderground v.1.15,2013-02-09 11:39:00,
2013-02-09 06:49:00,25.4,24.2,29.63,North,360,0.0,0.0,95,0.00,,,0.00,Wunderground v.1.15,2013-02-09 11:49:00,
2013-02-09 06:59:00,25.3,24.1,29.63,NNE,14,0.0,0.0,95,0.00,,,0.00,Wunderground v.1.15,2013-02-09 11:59:00,
2013-02-09 07:09:00,25.5,24.3,29.64,North,9,0.0,0.0,95,0.00,,,0.00,Wunderground v.1.15,2013-02-09 12:09:00,
2013-02-09 07:19:00,25.1,23.9,29.66,North,360,0.0,0.0,95,0.00,,,0.00,Wunderground v.1.15,2013-02-09 12:19:00,
2013-02-09 07:29:00,24.8,23.6,29.66,North,9,0.0,0.0,95,0.00,,,0.00,Wunderground v.1.15,2013-02-09 12:29:00,
2013-02-09 07:39:00,24.8,23.6,29.66,North,9,0.0,0.0,95,0.00,,,0.00,Wunderground v.1.15,2013-02-09 12:39:00,
2013-02-09 07:48:00,24.8,23.6,29.67,North,9,0.0,0.0,95,0.00,,,0.00,Wunderground v.1.15,2013-02-09 12:48:00,
2013-02-09 07:58:00,24.8,23.6,29.67,North,9,0.0,0.0,95,0.00,,,0.00,Wunderground v.1.15,2013-02-09 12:58:00,
2013-02-09 08:09:00,24.7,23.5,29.69,North,9,0.0,0.0,95,0.00,,,0.00,Wunderground v.1.15,2013-02-09 13:09:00,
2013-02-09 08:19:00,24.7,23.5,29.69,North,9,0.0,0.0,95,0.00,,,0.00,Wunderground v.1.15,2013-02-09 13:19:00,
2013-02-09 08:29:00,24.6,23.4,29.69,North,9,0.0,0.0,95,0.00,,,0.00,Wunderground v.1.15,2013-02-09 13:29:00,
2013-02-09 08:39:00,24.5,23.3,29.69,North,9,0.0,0.0,95,0.00,,,0.00,Wunderground v.1.15,2013-02-09 13:39:00,
2013-02-09 08:49:00,24.4,23.2,29.70,North,9,0.0,0.0,95,0.00,,,0.00,Wunderground v.1.15,2013-02-09 13:49:00,
2013-02-09 08:59:00,24.4,22.9,29.70,North,9,0.0,0.0,94,0.00,,,0.00,Wunderground v.1.15,2013-02-09 13:59:00,
2013-02-09 09:09:00,24.4,22.9,29.70,North,9,0.0,0.0,94,0.00,,,0.00,Wunderground v.1.15,2013-02-09 14:09:00,
2013-02-09 09:19:00,24.6,23.1,29.71,North,9,0.0,0.0,94,0.00,,,0.00,Wunderground v.1.15,2013-02-09 14:19:00,
2013-02-09 09:29:00,24.4,22.9,29.71,North,9,0.0,0.0,94,0.00,,,0.00,Wunderground v.1.15,2013-02-09 14:29:00,
2013-02-09 09:39:00,24.7,23.2,29.71,North,9,0.0,0.0,94,0.00,,,0.00,Wunderground v.1.15,2013-02-09 14:39:00,
2013-02-09 09:49:00,24.7,23.0,29.72,North,9,0.0,0.0,93,0.00,,,0.00,Wunderground v.1.15,2013-02-09 14:49:00,
2013-02-09 09:59:00,25.0,23.3,29.72,North,360,0.0,0.0,93,0.00,,,0.00,Wunderground v.1.15,2013-02-09 14:59:00,
2013-02-09 10:09:00,24.8,23.1,29.74,North,9,0.0,0.0,93,0.00,,,0.00,Wunderground v.1.15,2013-02-09 15:09:00,
2013-02-09 10:19:00,24.9,23.2,29.74,North,9,0.0,0.0,93,0.00,,,0.00,Wunderground v.1.15,2013-02-09 15:19:00,
2013-02-09 10:29:00,24.9,23.2,29.74,North,9,0.0,0.0,93,0.00,,,0.00,Wunderground v.1.15,2013-02-09 15:29:00,
2013-02-09 10:39:00,24.8,22.8,29.75,North,5,0.0,0.0,92,0.00,,,0.00,Wunderground v.1.15,2013-02-09 15:39:00,
2013-02-09 10:49:00,24.8,22.8,29.75,North,9,0.0,0.0,92,0.00,,,0.00,Wunderground v.1.15,2013-02-09 15:49:00,
2013-02-09 10:59:00,24.8,22.8,29.75,North,9,0.0,0.0,92,0.00,,,0.00,Wunderground v.1.15,2013-02-09 15:59:00,
2013-02-09 11:09:00,24.9,22.9,29.75,North,9,0.0,0.0,92,0.00,,,0.00,Wunderground v.1.15,2013-02-09 16:09:00,
2013-02-09 11:19:00,24.6,22.3,29.76,North,9,0.0,0.0,91,0.00,,,0.00,Wunderground v.1.15,2013-02-09 16:19:00,
2013-02-09 11:29:00,24.6,22.3,29.76,North,9,0.0,0.0,91,0.00,,,0.00,Wunderground v.1.15,2013-02-09 16:29:00,
2013-02-09 11:39:00,24.5,22.2,29.77,North,9,0.0,0.0,91,0.00,,,0.00,Wunderground v.1.15,2013-02-09 16:39:00,
2013-02-09 11:48:00,24.6,22.3,29.78,North,9,0.0,0.0,91,0.00,,,0.00,Wunderground v.1.15,2013-02-09 16:48:00,
2013-02-09 11:58:00,24.6,22.3,29.78,North,360,0.0,0.0,91,0.00,,,0.00,Wunderground v.1.15,2013-02-09 16:58:00,
2013-02-09 12:08:00,24.6,22.1,29.79,North,5,0.0,0.0,90,0.00,,,0.00,Wunderground v.1.15,2013-02-09 17:08:00,
2013-02-09 12:19:00,24.7,22.2,29.79,North,9,0.0,0.0,90,0.00,,,0.00,Wunderground v.1.15,2013-02-09 17:19:00,
2013-02-09 12:28:00,24.6,21.8,29.79,North,5,0.0,0.0,89,0.00,,,0.00,Wunderground v.1.15,2013-02-09 17:28:00,
2013-02-09 12:39:00,24.6,21.8,29.80,North,5,0.0,0.0,89,0.00,,,0.00,Wunderground v.1.15,2013-02-09 17:39:00,
2013-02-09 12:48:00,24.5,21.5,29.80,North,9,0.0,0.0,88,0.00,,,0.00,Wunderground v.1.15,2013-02-09 17:48:00,
2013-02-09 12:58:00,24.7,21.4,29.80,North,9,0.0,0.0,87,0.00,,,0.00,Wunderground v.1.15,2013-02-09 17:58:00,
2013-02-09 13:09:00,24.8,21.5,29.80,North,9,0.0,0.0,87,0.00,,,0.00,Wunderground v.1.15,2013-02-09 18:09:00,
2013-02-09 13:19:00,24.9,21.0,29.80,North,360,0.0,0.0,85,0.00,,,0.00,Wunderground v.1.15,2013-02-09 18:19:00,
2013-02-09 13:29:00,24.8,20.4,29.80,North,9,0.0,0.0,83,0.00,,,0.00,Wunderground v.1.15,2013-02-09 18:29:00,
2013-02-09 13:39:00,25.1,20.1,29.80,North,9,0.0,0.0,81,0.00,,,0.00,Wunderground v.1.15,2013-02-09 18:39:00,
2013-02-09 13:49:00,25.6,20.0,29.80,North,9,0.0,0.0,79,0.00,,,0.00,Wunderground v.1.15,2013-02-09 18:49:00,
2013-02-09 13:59:00,26.1,18.3,29.80,North,5,0.0,0.0,72,0.00,,,0.00,Wunderground v.1.15,2013-02-09 18:59:00,
2013-02-09 14:09:00,25.9,18.4,29.81,North,9,0.0,0.0,73,0.00,,,0.00,Wunderground v.1.15,2013-02-09 19:09:00,
2013-02-09 14:19:00,26.2,17.7,29.82,North,5,0.0,0.0,70,0.00,,,0.00,Wunderground v.1.15,2013-02-09 19:19:00,
2013-02-09 14:29:00,26.5,18.0,29.82,North,9,0.0,0.0,70,0.00,,,0.00,Wunderground v.1.15,2013-02-09 19:29:00,
2013-02-09 14:39:00,26.7,17.2,29.83,North,9,0.0,0.0,67,0.00,,,0.00,Wunderground v.1.15,2013-02-09 19:39:00,
2013-02-09 14:49:00,27.1,16.5,29.84,North,5,0.0,0.0,64,0.00,,,0.00,Wunderground v.1.15,2013-02-09 19:49:00,
2013-02-09 14:59:00,27.5,15.8,29.84,North,9,0.0,0.0,61,0.00,,,0.00,Wunderground v.1.15,2013-02-09 19:59:00,
2013-02-09 15:09:00,27.4,16.8,29.84,North,5,0.0,0.0,64,0.00,,,0.00,Wunderground v.1.15,2013-02-09 20:09:00,
2013-02-09 15:19:00,27.4,15.7,29.85,North,9,0.0,0.0,61,0.00,,,0.00,Wunderground v.1.15,2013-02-09 20:19:00,
2013-02-09 15:29:00,27.6,15.5,29.85,North,5,0.0,0.0,60,0.00,,,0.00,Wunderground v.1.15,2013-02-09 20:29:00,
2013-02-09 15:39:00,27.9,15.0,29.86,North,9,13.0,21.0,58,0.00,,,0.00,Wunderground v.1.15,2013-02-09 20:39:00,
2013-02-09 15:49:00,28.0,12.6,29.87,North,9,20.0,23.0,52,0.00,,,0.00,Wunderground v.1.15,2013-02-09 20:49:00,
2013-02-09 15:59:00,28.0,13.9,29.87,North,5,21.0,21.0,55,0.00,,,0.00,Wunderground v.1.15,2013-02-09 20:59:00,
2013-02-09 16:09:00,28.0,11.3,29.88,North,9,20.0,20.0,49,0.00,,,0.00,Wunderground v.1.15,2013-02-09 21:09:00,
2013-02-09 16:19:00,28.2,13.2,29.89,North,9,20.0,20.0,53,0.00,,,0.00,Wunderground v.1.15,2013-02-09 21:19:00,
2013-02-09 16:29:00,28.0,11.7,29.89,North,9,20.0,21.0,50,0.00,,,0.00,Wunderground v.1.15,2013-02-09 21:29:00,
2013-02-09 16:39:00,27.9,10.7,29.89,North,9,20.0,20.0,48,0.00,,,0.00,Wunderground v.1.15,2013-02-09 21:39:00,
2013-02-09 16:49:00,28.1,11.8,29.91,North,9,20.0,20.0,50,0.00,,,0.00,Wunderground v.1.15,2013-02-09 21:49:00,
2013-02-09 16:59:00,28.0,10.8,29.91,North,9,20.0,20.0,48,0.00,,,0.00,Wunderground v.1.15,2013-02-09 21:59:00,
2013-02-09 17:08:00,27.7,11.5,29.92,North,5,21.0,23.0,50,0.00,,,0.00,Wunderground v.1.15,2013-02-09 22:08:00,
2013-02-09 17:18:00,27.8,10.6,29.94,North,9,21.0,22.0,48,0.00,,,0.00,Wunderground v.1.15,2013-02-09 22:18:00,
2013-02-09 17:28:00,27.7,11.0,29.94,North,9,21.0,21.0,49,0.00,,,0.00,Wunderground v.1.15,2013-02-09 22:28:00,
2013-02-09 17:39:00,27.7,12.8,29.94,North,9,20.0,20.0,53,0.00,,,0.00,Wunderground v.1.15,2013-02-09 22:39:00,
2013-02-09 17:48:00,27.3,12.8,29.97,North,5,18.0,18.0,54,0.00,,,0.00,Wunderground v.1.15,2013-02-09 22:48:00,
2013-02-09 17:58:00,27.1,13.1,29.97,North,9,18.0,21.0,55,0.00,,,0.00,Wunderground v.1.15,2013-02-09 22:58:00,
2013-02-09 18:09:00,26.9,13.3,29.98,North,9,20.0,20.0,56,0.00,,,0.00,Wunderground v.1.15,2013-02-09 23:09:00,
2013-02-09 18:19:00,26.8,13.2,29.99,North,5,20.0,20.0,56,0.00,,,0.00,Wunderground v.1.15,2013-02-09 23:19:00,
2013-02-09 18:29:00,26.5,12.5,29.99,North,9,20.0,20.0,55,0.00,,,0.00,Wunderground v.1.15,2013-02-09 23:29:00,
2013-02-09 18:39:00,26.2,13.0,30.00,North,9,19.0,20.0,57,0.00,,,0.00,Wunderground v.1.15,2013-02-09 23:39:00,
2013-02-09 18:49:00,26.1,13.7,30.01,North,9,20.0,21.0,59,0.00,,,0.00,Wunderground v.1.15,2013-02-09 23:49:00,
2013-02-09 18:59:00,26.0,12.8,30.01,North,9,20.0,20.0,57,0.00,,,0.00,Wunderground v.1.15,2013-02-09 23:59:00,
2013-02-09 19:09:00,26.0,12.4,30.03,North,9,20.0,20.0,56,0.00,,,0.00,Wunderground v.1.15,2013-02-10 00:09:00,
2013-02-09 19:19:00,25.8,12.2,30.03,North,9,20.0,21.0,56,0.00,,,0.00,Wunderground v.1.15,2013-02-10 00:19:00,
2013-02-09 19:29:00,25.6,12.1,30.03,North,9,21.0,23.0,56,0.00,,,0.00,Wunderground v.1.15,2013-02-10 00:29:00,
2013-02-09 19:39:00,25.7,13.3,30.03,North,5,20.0,23.0,59,0.00,,,0.00,Wunderground v.1.15,2013-02-10 00:39:00,
2013-02-09 19:49:00,25.4,12.3,30.04,North,9,21.0,21.0,57,0.00,,,0.00,Wunderground v.1.15,2013-02-10 00:49:00,
2013-02-09 19:59:00,25.3,11.4,30.04,North,9,22.0,22.0,55,0.00,,,0.00,Wunderground v.1.15,2013-02-10 00:59:00,
2013-02-09 20:09:00,25.3,13.0,30.05,North,5,21.0,22.0,59,0.00,,,0.00,Wunderground v.1.15,2013-02-10 01:09:00,
2013-02-09 20:19:00,25.2,13.2,30.05,North,5,20.0,23.0,60,0.00,,,0.00,Wunderground v.1.15,2013-02-10 01:19:00,
2013-02-09 20:29:00,25.2,12.5,30.05,North,5,20.0,20.0,58,0.00,,,0.00,Wunderground v.1.15,2013-02-10 01:29:00,
2013-02-09 20:39:00,25.1,12.0,30.05,North,5,20.0,20.0,57,0.00,,,0.00,Wunderground v.1.15,2013-02-10 01:39:00,
2013-02-09 20:49:00,25.1,12.0,30.06,North,5,20.0,20.0,57,0.00,,,0.00,Wunderground v.1.15,2013-02-10 01:49:00,
2013-02-09 20:59:00,24.9,11.0,30.06,North,9,20.0,20.0,55,0.00,,,0.00,Wunderground v.1.15,2013-02-10 01:59:00,
2013-02-09 21:09:00,25.1,12.0,30.07,North,9,21.0,21.0,57,0.00,,,0.00,Wunderground v.1.15,2013-02-10 02:09:00,
2013-02-09 21:19:00,25.0,11.9,30.08,North,9,20.0,22.0,57,0.00,,,0.00,Wunderground v.1.15,2013-02-10 02:19:00,
2013-02-09 21:29:00,25.0,12.7,30.08,North,9,20.0,21.0,59,0.00,,,0.00,Wunderground v.1.15,2013-02-10 02:29:00,
2013-02-09 21:39:00,25.0,11.9,30.09,North,9,20.0,20.0,57,0.00,,,0.00,Wunderground v.1.15,2013-02-10 02:39:00,
2013-02-09 21:49:00,24.8,11.3,30.10,North,5,20.0,20.0,56,0.00,,,0.00,Wunderground v.1.15,2013-02-10 02:49:00,
2013-02-09 21:59:00,24.7,11.6,30.10,North,9,19.0,20.0,57,0.00,,,0.00,Wunderground v.1.15,2013-02-10 02:59:00,
2013-02-09 22:09:00,24.6,12.7,30.11,North,5,19.0,19.0,60,0.00,,,0.00,Wunderground v.1.15,2013-02-10 03:09:00,
2013-02-09 22:18:00,24.5,13.0,30.12,North,9,19.0,19.0,61,0.00,,,0.00,Wunderground v.1.15,2013-02-10 03:18:00,
2013-02-09 22:28:00,24.1,11.0,30.12,North,9,20.0,23.0,57,0.00,,,0.00,Wunderground v.1.15,2013-02-10 03:28:00,
2013-02-09 22:38:00,23.9,11.3,30.13,North,5,20.0,20.0,58,0.00,,,0.00,Wunderground v.1.15,2013-02-10 03:38:00,
2013-02-09 22:48:00,23.8,11.5,30.12,North,9,21.0,21.0,59,0.00,,,0.00,Wunderground v.1.15,2013-02-10 03:48:00,
2013-02-09 22:58:00,23.6,11.4,30.12,North,9,21.0,24.0,59,0.00,,,0.00,Wunderground v.1.15,2013-02-10 03:58:00,
2013-02-09 23:09:00,23.6,12.1,30.13,North,9,21.0,23.0,61,0.00,,,0.00,Wunderground v.1.15,2013-02-10 04:09:00,
2013-02-09 23:19:00,23.3,10.7,30.13,North,9,22.0,22.0,58,0.00,,,0.00,Wunderground v.1.15,2013-02-10 04:19:00,
2013-02-09 23:29:00,23.0,9.6,30.13,North,5,21.0,23.0,56,0.00,,,0.00,Wunderground v.1.15,2013-02-10 04:29:00,
2013-02-09 23:39:00,22.7,10.1,30.13,North,9,22.0,23.0,58,0.00,,,0.00,Wunderground v.1.15,2013-02-10 04:39:00,
2013-02-09 23:49:00,22.8,10.2,30.14,North,9,21.0,22.0,58,0.00,,,0.00,Wunderground v.1.15,2013-02-10 04:49:00,
2013-02-09 23:59:00,22.7,10.9,30.14,North,9,21.0,21.0,60,0.00,,,0.00,Wunderground v.1.15,2013-02-10 04:59:00,